Aggieland, Texas
Current Conditions -  °F | °C
As of 2:53 AM on Monday 24 Nov 2014 (Local Time) from KCLL Reporting Station
Clear Clear  
Wind Chill: 51°   Ceiling: Unl
Heat Index: 51°   Visibility: 10mi
Dew Point: 40°   Wind: 13mph
Humidity: 66%   Direction: 340°NNW
Pressure: 29.89"   Gusts: 22mph
Location:  30.5943°N, 96.3574°W
Report Text: KCLL 240853Z AUTO 34011G19KT 10SM CLR 11/04 A2989 RMK AO2 SLP119 T01060044 51025 $
Loading
Personal Weather Stations






























Interactive Weather Map New forecast layout! Learn more

10-Day Weather Forecast

Advertisements
Track Severe Weather on mobile